Time;durP1;ratioP1;P1;durP2;ratioP2;P2;SDS_P1;SDS_P2;PMS_P1;PMS_P2;Temp;Humidity;BMP_temperature;BMP_pressure;BME280_temperature;BME280_humidity;BME280_pressure;Samples;Min_cycle;Max_cycle;Signal;HPM_P1;HPM_P2
2022/09/06 00:00:23;;;;;;;4.60;3.83;;;;;25.10;100463.00;;;;2096533;28;20205;-57
2022/09/06 00:01:24;;;;;;;4.60;4.13;;;;;25.10;100467.00;;;;2096510;28;20341;-56
2022/09/06 00:02:24;;;;;;;4.13;3.80;;;;;25.10;100465.00;;;;2096467;28;20215;-55
2022/09/06 00:03:27;;;;;;;4.97;4.47;;;;;25.10;100470.00;;;;2096797;28;20672;-56
2022/09/06 00:04:27;;;;;;;5.10;4.13;;;;;25.10;100464.00;;;;2095170;28;20320;-54
2022/09/06 00:05:27;;;;;;;4.97;4.57;;;;;25.10;100463.00;;;;2095076;28;20470;-55
2022/09/06 00:06:28;;;;;;;4.77;4.27;;;;;25.20;100461.00;;;;2095979;28;20219;-54
2022/09/06 00:07:28;;;;;;;6.00;4.30;;;;;25.20;100463.00;;;;2095423;28;20635;-54
2022/09/06 00:08:29;;;;;;;4.20;3.80;;;;;25.10;100460.00;;;;2096409;28;20263;-54
2022/09/06 00:09:29;;;;;;;4.27;3.97;;;;;25.10;100464.00;;;;2096524;28;20227;-54
2022/09/06 00:10:29;;;;;;;4.50;4.10;;;;;25.10;100459.00;;;;2096400;28;20261;-55
2022/09/06 00:11:30;;;;;;;4.57;3.87;;;;;25.10;100460.00;;;;2087380;28;20705;-55
2022/09/06 00:12:30;;;;;;;5.33;3.77;;;;;25.10;100461.00;;;;2087511;28;20213;-56
2022/09/06 00:13:30;;;;;;;9.47;3.97;;;;;25.10;100410.00;;;;2096342;28;20270;-56
2022/09/06 00:14:31;;;;;;;4.50;3.80;;;;;25.10;100455.00;;;;2095753;28;20299;-55
2022/09/06 00:15:31;;;;;;;4.20;3.77;;;;;25.10;100455.00;;;;2095520;28;20208;-55
2022/09/06 00:16:32;;;;;;;6.50;4.07;;;;;25.10;100460.00;;;;2087433;28;20234;-55
2022/09/06 00:17:32;;;;;;;4.13;3.73;;;;;25.10;100451.00;;;;2086734;28;20584;-55
2022/09/06 00:18:32;;;;;;;3.70;3.30;;;;;25.10;100454.00;;;;2096482;28;20208;-56
2022/09/06 00:19:33;;;;;;;4.40;3.97;;;;;25.10;100455.00;;;;2096518;28;20257;-56
2022/09/06 00:20:33;;;;;;;3.77;3.37;;;;;25.10;100457.00;;;;2096411;28;20573;-55
2022/09/06 00:21:34;;;;;;;5.10;3.80;;;;;25.10;100459.00;;;;2095725;28;20862;-54
2022/09/06 00:22:35;;;;;;;4.60;3.90;;;;;25.10;100457.00;;;;2087266;28;20291;-55
2022/09/06 00:23:35;;;;;;;4.30;3.90;;;;;25.10;100461.00;;;;2091422;28;20475;-56
2022/09/06 00:24:36;;;;;;;4.43;3.77;;;;;25.10;100454.00;;;;2088072;28;20570;-54
2022/09/06 00:25:36;;;;;;;4.67;4.03;;;;;25.20;100457.00;;;;2088073;28;20270;-56
2022/09/06 00:26:36;;;;;;;4.23;3.80;;;;;25.10;100458.00;;;;2087892;28;20695;-56
2022/09/06 00:27:37;;;;;;;3.77;3.47;;;;;25.10;100450.00;;;;2086227;28;20236;-56
2022/09/06 00:28:37;;;;;;;4.00;3.70;;;;;25.10;100451.00;;;;2087386;28;20220;-56
2022/09/06 00:29:38;;;;;;;4.10;3.70;;;;;25.10;100459.00;;;;2088223;28;20216;-54
2022/09/06 00:30:38;;;;;;;4.03;3.30;;;;;25.10;100462.00;;;;2087954;28;20227;-55
2022/09/06 00:31:38;;;;;;;4.03;3.70;;;;;25.10;100463.00;;;;2087890;28;20713;-55
2022/09/06 00:32:40;;;;;;;4.33;3.27;;;;;25.10;100459.00;;;;2087507;28;20283;-55
2022/09/06 00:33:40;;;;;;;4.32;3.53;;;;;25.20;100460.00;;;;2087083;28;20213;-56
2022/09/06 00:34:41;;;;;;;4.47;4.07;;;;;25.10;100459.00;;;;2087986;28;20221;-56
2022/09/06 00:35:43;;;;;;;3.80;3.50;;;;;25.10;100456.00;;;;2087992;28;20208;-56
2022/09/06 00:36:43;;;;;;;4.73;3.30;;;;;25.10;100449.00;;;;2092590;28;20231;-56
2022/09/06 00:37:44;;;;;;;4.50;4.07;;;;;25.20;100454.00;;;;2095552;28;20435;-56
2022/09/06 00:38:44;;;;;;;3.33;3.13;;;;;25.10;100458.00;;;;2096460;28;20357;-56
2022/09/06 00:39:44;;;;;;;4.23;3.40;;;;;25.10;100455.00;;;;2095670;28;20312;-55
2022/09/06 00:40:45;;;;;;;5.07;3.60;;;;;25.10;100473.00;;;;2095922;28;20616;-55
2022/09/06 00:41:45;;;;;;;5.60;3.50;;;;;25.10;100458.00;;;;2096485;28;20680;-56
2022/09/06 00:42:45;;;;;;;3.80;3.50;;;;;25.10;100462.00;;;;2094967;28;20216;-56
2022/09/06 00:43:46;;;;;;;4.23;3.67;;;;;25.10;100462.00;;;;2096033;28;20768;-56
2022/09/06 00:44:46;;;;;;;3.83;3.50;;;;;25.10;100470.00;;;;2096149;28;20970;-55
2022/09/06 00:45:46;;;;;;;5.07;3.80;;;;;25.10;100472.00;;;;2095628;28;20810;-56
2022/09/06 00:46:47;;;;;;;3.57;3.27;;;;;25.10;100471.00;;;;2084212;28;21119;-56
2022/09/06 00:47:47;;;;;;;3.60;3.30;;;;;25.10;100439.00;;;;2084138;28;20792;-55
2022/09/06 00:48:49;;;;;;;3.80;3.50;;;;;25.10;100474.00;;;;2087376;28;20216;-56
2022/09/06 00:49:50;;;;;;;3.93;3.40;;;;;25.10;100496.00;;;;2087294;28;20209;-55
2022/09/06 00:50:53;;;;;;;4.40;3.03;;;;;25.00;100512.00;;;;2079440;28;20842;-55
2022/09/06 00:52:02;;;;;;;3.83;3.20;;;;;25.00;100494.00;;;;2087380;28;20519;-55
2022/09/06 00:53:02;;;;;;;4.03;3.33;;;;;25.00;100471.00;;;;2088435;28;20463;-55
2022/09/06 00:54:04;;;;;;;3.97;3.57;;;;;25.00;100493.00;;;;2087382;28;20447;-55
2022/09/06 00:55:05;;;;;;;3.42;3.10;;;;;25.10;100491.00;;;;2087365;28;20220;-55
2022/09/06 00:56:05;;;;;;;4.60;3.70;;;;;25.10;100495.00;;;;2094958;28;20719;-55
2022/09/06 00:57:05;;;;;;;3.80;3.37;;;;;25.00;100499.00;;;;2095153;28;20712;-55
2022/09/06 00:58:06;;;;;;;3.60;3.30;;;;;25.00;100500.00;;;;2086385;28;20647;-55
2022/09/06 00:59:06;;;;;;;3.47;3.17;;;;;25.00;100494.00;;;;2095418;28;20228;-55
2022/09/06 01:00:07;;;;;;;3.40;3.10;;;;;25.10;100505.00;;;;2091090;28;20648;-55
2022/09/06 01:01:08;;;;;;;3.53;3.13;;;;;25.10;100505.00;;;;2087002;28;20307;-55
2022/09/06 01:02:08;;;;;;;3.30;3.00;;;;;25.10;100503.00;;;;2087677;28;20478;-56
2022/09/06 01:03:09;;;;;;;3.97;3.67;;;;;25.10;100516.00;;;;2087645;28;20282;-55
2022/09/06 01:04:09;;;;;;;3.47;3.17;;;;;25.10;100515.00;;;;2087153;28;20213;-55
2022/09/06 01:05:10;;;;;;;3.77;3.47;;;;;25.10;100520.00;;;;2087190;28;20271;-55
2022/09/06 01:06:16;;;;;;;3.73;3.43;;;;;25.10;100503.00;;;;2087773;28;20593;-55
2022/09/06 01:07:46;;;;;;;3.70;3.40;;;;;25.10;100509.00;;;;2086798;28;20251;-55
2022/09/06 01:09:17;;;;;;;3.33;3.03;;;;;25.10;100511.00;;;;2092881;28;20251;-56
2022/09/06 01:10:34;;;;;;;4.50;3.20;;;;;25.10;100477.00;;;;2095559;28;20666;-55
2022/09/06 01:11:47;;;;;;;3.70;3.40;;;;;25.10;100507.00;;;;2087079;28;20967;-55
2022/09/06 01:12:57;;;;;;;3.60;3.30;;;;;25.10;100511.00;;;;2089308;28;20221;-56
2022/09/06 01:14:00;;;;;;;3.90;3.30;;;;;25.10;100517.00;;;;2086956;28;20804;-55
2022/09/06 01:15:10;;;;;;;7.95;3.60;;;;;25.10;100513.00;;;;2086984;28;20542;-55
2022/09/06 01:16:15;;;;;;;3.55;3.25;;;;;25.10;100518.00;;;;2095536;28;20266;-55
2022/09/06 01:17:40;;;;;;;3.33;3.03;;;;;25.10;100515.00;;;;2087738;28;20304;-55
2022/09/06 01:19:17;;;;;;;3.40;3.10;;;;;25.10;100510.00;;;;2090476;28;20261;-56
2022/09/06 01:20:33;;;;;;;3.92;3.08;;;;;25.10;100523.00;;;;2091424;28;20212;-56
2022/09/06 01:21:54;;;;;;;3.78;3.47;;;;;25.10;100524.00;;;;2095791;28;20302;-55
2022/09/06 01:23:13;;;;;;;4.25;3.85;;;;;25.10;100520.00;;;;2094946;28;20218;-56
2022/09/06 01:24:52;;;;;;;3.35;3.05;;;;;25.10;100526.00;;;;2095190;28;20231;-55
2022/09/06 01:26:31;;;;;;;3.22;2.92;;;;;25.10;100528.00;;;;2070636;28;20217;-55
2022/09/06 01:27:37;;;;;;;3.43;3.13;;;;;25.10;100529.00;;;;2093963;28;20216;-55
2022/09/06 01:28:41;;;;;;;3.70;3.40;;;;;25.10;100512.00;;;;2094562;28;20490;-55
2022/09/06 01:29:49;;;;;;;3.47;3.17;;;;;25.10;100535.00;;;;2085729;28;20489;-55
2022/09/06 01:31:04;;;;;;;5.45;3.25;;;;;25.10;100537.00;;;;2086392;28;20220;-56
2022/09/06 01:32:33;;;;;;;3.80;3.40;;;;;25.10;100534.00;;;;2088880;28;20205;-55
2022/09/06 01:33:51;;;;;;;3.83;3.30;;;;;25.10;100511.00;;;;2091364;28;20221;-55
2022/09/06 01:34:54;;;;;;;2.80;2.60;;;;;25.10;100538.00;;;;2073689;28;20212;-55
2022/09/06 01:35:57;;;;;;;3.50;3.20;;;;;25.10;100537.00;;;;2071958;28;21257;-55
2022/09/06 01:37:00;;;;;;;3.95;3.58;;;;;25.10;100542.00;;;;2077841;28;20444;-55
2022/09/06 01:38:00;;;;;;;4.88;3.33;;;;;25.10;100532.00;;;;2085114;28;20205;-55
2022/09/06 01:39:01;;;;;;;3.70;3.17;;;;;25.10;100530.00;;;;2078875;28;20198;-56
2022/09/06 01:40:01;;;;;;;3.30;3.00;;;;;25.10;100531.00;;;;2086954;28;20201;-55
2022/09/06 01:41:01;;;;;;;3.10;2.80;;;;;25.10;100534.00;;;;2095240;28;20291;-55
2022/09/06 01:42:06;;;;;;;3.60;3.30;;;;;25.10;100534.00;;;;2095810;28;20199;-55
2022/09/06 01:43:08;;;;;;;3.60;3.20;;;;;25.10;100529.00;;;;2095199;28;20204;-55
2022/09/06 01:44:09;;;;;;;3.67;3.33;;;;;25.10;100404.00;;;;2086858;28;20448;-55
2022/09/06 01:45:11;;;;;;;3.43;3.00;;;;;25.10;100526.00;;;;2086722;28;21635;-55
2022/09/06 01:46:33;;;;;;;4.97;3.33;;;;;25.10;100588.00;;;;2078847;28;20700;-55
2022/09/06 01:47:49;;;;;;;4.27;3.47;;;;;25.10;100539.00;;;;2083519;28;20302;-55
2022/09/06 01:49:04;;;;;;;4.28;3.45;;;;;25.10;100526.00;;;;2095379;28;20537;-55
2022/09/06 01:50:23;;;;;;;4.20;3.00;;;;;25.10;100526.00;;;;2094874;28;20212;-55
2022/09/06 01:52:00;;;;;;;4.25;3.10;;;;;25.20;100526.00;;;;2094825;28;20719;-56
2022/09/06 01:53:09;;;;;;;3.42;3.13;;;;;25.10;100527.00;;;;2086070;28;20221;-55
2022/09/06 01:54:37;;;;;;;3.90;3.33;;;;;25.10;100530.00;;;;2102883;28;20215;-55
2022/09/06 01:55:55;;;;;;;3.28;2.97;;;;;25.10;100527.00;;;;2096985;28;20223;-55
2022/09/06 01:57:07;;;;;;;3.67;3.37;;;;;25.10;100527.00;;;;2094482;28;20211;-56
2022/09/06 01:58:41;;;;;;;5.60;3.77;;;;;25.10;100522.00;;;;2091710;28;20438;-55
2022/09/06 02:00:10;;;;;;;3.47;3.17;;;;;25.10;100515.00;;;;2082190;28;20503;-55
2022/09/06 02:01:13;;;;;;;4.43;3.57;;;;;25.10;100380.00;;;;2085696;28;20304;-55
2022/09/06 02:02:19;;;;;;;4.53;3.25;;;;;25.20;100521.00;;;;2085935;28;20517;-56
2022/09/06 02:03:27;;;;;;;3.55;3.25;;;;;25.20;100524.00;;;;2086874;28;20240;-55
2022/09/06 02:04:49;;;;;;;4.10;3.45;;;;;25.10;100533.00;;;;2085552;28;20225;-55
2022/09/06 02:05:51;;;;;;;3.10;2.85;;;;;25.10;100523.00;;;;2084921;28;20755;-55
2022/09/06 02:07:01;;;;;;;4.00;3.20;;;;;25.10;100522.00;;;;2085650;28;20217;-55
2022/09/06 02:08:05;;;;;;;3.33;3.03;;;;;25.10;100522.00;;;;2070766;28;20540;-56
2022/09/06 02:09:08;;;;;;;3.50;3.20;;;;;25.10;100523.00;;;;2078444;28;20276;-55
2022/09/06 02:10:16;;;;;;;3.50;3.10;;;;;25.10;100526.00;;;;2085661;28;20244;-55
2022/09/06 02:11:17;;;;;;;3.17;2.88;;;;;25.10;100531.00;;;;2094531;28;20217;-56
2022/09/06 02:12:17;;;;;;;3.53;2.50;;;;;25.10;100526.00;;;;2094812;28;20216;-55
2022/09/06 02:13:17;;;;;;;3.30;3.00;;;;;25.10;100529.00;;;;2091921;28;20278;-55
2022/09/06 02:14:30;;;;;;;3.53;3.23;;;;;25.10;100515.00;;;;2078136;28;20702;-55
2022/09/06 02:15:32;;;;;;;3.70;3.33;;;;;25.10;100515.00;;;;2085577;28;20308;-56
2022/09/06 02:16:33;;;;;;;3.85;3.50;;;;;25.00;100506.00;;;;2077201;28;20214;-55
2022/09/06 02:17:37;;;;;;;3.20;2.90;;;;;25.10;100519.00;;;;2073609;28;20225;-55
2022/09/06 02:18:42;;;;;;;3.58;3.13;;;;;25.10;100508.00;;;;2078097;28;20288;-55
2022/09/06 02:19:55;;;;;;;4.05;3.20;;;;;25.00;100515.00;;;;2078225;28;20221;-55
2022/09/06 02:20:56;;;;;;;3.42;3.13;;;;;25.10;100512.00;;;;2086759;28;20266;-57
2022/09/06 02:21:56;;;;;;;3.80;3.30;;;;;25.00;100504.00;;;;2078622;28;20213;-56
2022/09/06 02:23:00;;;;;;;2.90;2.60;;;;;25.00;100478.00;;;;2085343;28;20474;-56
2022/09/06 02:24:01;;;;;;;3.70;3.00;;;;;25.10;100504.00;;;;2076424;28;20724;-55
2022/09/06 02:25:01;;;;;;;3.43;3.13;;;;;25.10;100507.00;;;;2069391;28;20210;-55
2022/09/06 02:26:11;;;;;;;4.10;3.10;;;;;25.00;100508.00;;;;2077108;28;20461;-55
2022/09/06 02:27:13;;;;;;;2.92;2.72;;;;;25.00;100507.00;;;;2085519;28;20256;-55
2022/09/06 02:28:13;;;;;;;2.73;2.37;;;;;25.00;100506.00;;;;2080676;28;20338;-55
2022/09/06 02:29:14;;;;;;;3.47;2.87;;;;;25.00;100518.00;;;;2077560;28;21004;-55
2022/09/06 02:30:14;;;;;;;3.17;2.97;;;;;25.10;100512.00;;;;2085907;28;20221;-55
2022/09/06 02:31:28;;;;;;;3.33;3.00;;;;;25.10;100511.00;;;;2065470;28;20528;-56
2022/09/06 02:32:28;;;;;;;3.27;2.97;;;;;25.10;100516.00;;;;2087427;28;20212;-56
2022/09/06 02:33:30;;;;;;;3.13;2.83;;;;;25.00;100492.00;;;;2077805;28;20469;-55
2022/09/06 02:34:30;;;;;;;3.70;3.20;;;;;25.00;100496.00;;;;2070864;28;20226;-55
2022/09/06 02:35:30;;;;;;;3.10;2.73;;;;;25.10;100497.00;;;;2085779;28;20483;-55
2022/09/06 02:36:31;;;;;;;3.37;3.07;;;;;25.10;100476.00;;;;2091732;28;20219;-55
2022/09/06 02:37:31;;;;;;;4.63;3.53;;;;;25.10;100501.00;;;;2085907;28;20288;-56
2022/09/06 02:38:32;;;;;;;3.20;2.90;;;;;25.00;100493.00;;;;2086329;28;20220;-56
2022/09/06 02:39:33;;;;;;;4.00;3.10;;;;;25.10;100505.00;;;;2086199;28;20239;-57
2022/09/06 02:40:33;;;;;;;3.90;3.10;;;;;25.10;100516.00;;;;2086285;28;20470;-56
2022/09/06 02:41:33;;;;;;;3.93;3.10;;;;;25.10;100509.00;;;;2086927;28;20237;-55
2022/09/06 02:42:34;;;;;;;3.00;2.70;;;;;25.10;100516.00;;;;2085899;28;20217;-55
2022/09/06 02:43:34;;;;;;;4.10;2.57;;;;;25.10;100507.00;;;;2078281;28;20221;-55
2022/09/06 02:44:35;;;;;;;3.87;2.97;;;;;25.00;100503.00;;;;2086358;28;20236;-56
2022/09/06 02:45:35;;;;;;;3.43;3.13;;;;;25.00;100508.00;;;;2086820;28;20239;-55
2022/09/06 02:46:35;;;;;;;3.80;3.20;;;;;25.00;100513.00;;;;2087096;28;20293;-55
2022/09/06 02:47:36;;;;;;;2.70;2.50;;;;;25.00;100516.00;;;;2085680;28;20221;-55
2022/09/06 02:48:36;;;;;;;5.47;3.00;;;;;25.00;100516.00;;;;2087059;28;20695;-56
2022/09/06 02:49:36;;;;;;;3.20;2.90;;;;;25.00;100526.00;;;;2087015;28;20685;-56
2022/09/06 02:50:37;;;;;;;3.40;3.10;;;;;25.00;100524.00;;;;2093373;28;20212;-55
2022/09/06 02:51:38;;;;;;;4.63;3.00;;;;;25.00;100528.00;;;;2094990;28;20270;-56
2022/09/06 02:52:38;;;;;;;3.33;3.03;;;;;25.00;100520.00;;;;2089750;28;20231;-56
2022/09/06 02:53:38;;;;;;;5.23;3.40;;;;;25.00;100520.00;;;;2076435;28;20524;-55
2022/09/06 02:54:39;;;;;;;5.40;3.30;;;;;25.00;100516.00;;;;2100116;28;20243;-56
2022/09/06 02:55:39;;;;;;;3.07;2.77;;;;;25.00;100513.00;;;;2101398;28;20258;-55
2022/09/06 02:56:39;;;;;;;3.60;3.17;;;;;25.00;100524.00;;;;2094256;28;20224;-55
2022/09/06 02:57:40;;;;;;;3.40;3.03;;;;;25.00;100514.00;;;;2093667;28;20234;-55
2022/09/06 02:58:40;;;;;;;3.50;2.90;;;;;25.00;100522.00;;;;2093970;28;20220;-55
2022/09/06 02:59:40;;;;;;;3.90;3.13;;;;;25.00;100518.00;;;;2087277;28;20324;-55
2022/09/06 03:00:41;;;;;;;3.57;3.07;;;;;25.00;100525.00;;;;2081915;28;20216;-55
2022/09/06 03:01:41;;;;;;;3.60;3.23;;;;;25.00;100527.00;;;;2093983;28;20212;-55
2022/09/06 03:02:41;;;;;;;2.60;2.40;;;;;25.00;100531.00;;;;2089226;28;20220;-55
2022/09/06 03:03:42;;;;;;;4.23;2.80;;;;;24.90;100520.00;;;;2086470;28;20326;-55
2022/09/06 03:04:42;;;;;;;3.73;3.10;;;;;25.00;100529.00;;;;2086545;28;20259;-55
2022/09/06 03:05:46;;;;;;;4.80;2.60;;;;;25.00;100521.00;;;;2086484;28;20225;-55
2022/09/06 03:06:46;;;;;;;3.33;2.95;;;;;25.00;100521.00;;;;2086359;28;20216;-55
2022/09/06 03:07:46;;;;;;;3.23;2.80;;;;;25.00;100517.00;;;;2092572;28;20232;-55
2022/09/06 03:08:47;;;;;;;3.10;2.80;;;;;25.00;100515.00;;;;2095193;28;21094;-55
2022/09/06 03:09:47;;;;;;;2.90;2.57;;;;;25.00;100523.00;;;;2094941;28;20204;-55
2022/09/06 03:10:48;;;;;;;3.17;2.73;;;;;25.00;100514.00;;;;2094840;28;20633;-55
2022/09/06 03:11:49;;;;;;;3.17;2.87;;;;;25.00;100526.00;;;;2094349;28;20641;-55
2022/09/06 03:12:49;;;;;;;3.30;3.00;;;;;25.00;100567.00;;;;2094970;28;20854;-55
2022/09/06 03:13:49;;;;;;;2.70;2.50;;;;;24.90;100511.00;;;;2094234;28;20230;-55
2022/09/06 03:14:50;;;;;;;4.77;3.10;;;;;25.00;100519.00;;;;2091851;28;20600;-55
2022/09/06 03:15:55;;;;;;;4.17;3.60;;;;;25.00;100521.00;;;;2094679;28;20218;-55
2022/09/06 03:16:56;;;;;;;3.07;2.87;;;;;25.00;100522.00;;;;2095643;28;20299;-55
2022/09/06 03:17:58;;;;;;;2.80;2.50;;;;;25.00;100525.00;;;;2094281;28;20934;-55
2022/09/06 03:18:58;;;;;;;2.90;2.70;;;;;25.00;100522.00;;;;2095450;28;20668;-55
2022/09/06 03:19:58;;;;;;;2.93;2.63;;;;;25.00;100521.00;;;;2095366;28;20239;-55
2022/09/06 03:20:59;;;;;;;3.43;3.10;;;;;25.00;100514.00;;;;2095393;28;20704;-55
2022/09/06 03:21:59;;;;;;;3.50;3.20;;;;;25.00;100524.00;;;;2094744;28;20222;-55
2022/09/06 03:22:59;;;;;;;3.03;2.70;;;;;25.00;100516.00;;;;2094919;28;20239;-55
2022/09/06 03:24:00;;;;;;;3.07;2.70;;;;;25.00;100511.00;;;;2095612;28;20300;-55
2022/09/06 03:25:00;;;;;;;4.40;3.00;;;;;24.90;100510.00;;;;2087615;28;20212;-55
2022/09/06 03:26:01;;;;;;;3.30;2.73;;;;;24.90;100504.00;;;;2086813;28;20380;-55
2022/09/06 03:27:01;;;;;;;3.40;3.07;;;;;25.00;100502.00;;;;2086545;28;20223;-55
2022/09/06 03:28:02;;;;;;;3.50;2.63;;;;;25.00;100506.00;;;;2086149;28;20220;-55
2022/09/06 03:29:02;;;;;;;3.37;2.97;;;;;25.00;100499.00;;;;2086004;28;20251;-55
2022/09/06 03:30:04;;;;;;;4.90;2.80;;;;;25.00;100494.00;;;;2091123;28;20211;-55
2022/09/06 03:31:04;;;;;;;3.90;2.83;;;;;25.00;100511.00;;;;2095079;28;20216;-55
2022/09/06 03:32:04;;;;;;;4.33;3.20;;;;;24.90;100489.00;;;;2095379;28;20216;-55
2022/09/06 03:33:05;;;;;;;2.93;2.60;;;;;24.90;100492.00;;;;2093665;28;20269;-55
2022/09/06 03:34:05;;;;;;;3.07;2.87;;;;;25.00;100491.00;;;;2082294;28;20217;-55
2022/09/06 03:35:06;;;;;;;2.90;2.70;;;;;24.90;100489.00;;;;2076583;28;20206;-57
2022/09/06 03:36:07;;;;;;;3.80;2.80;;;;;25.00;100492.00;;;;2096365;28;20200;-56
2022/09/06 03:37:07;;;;;;;3.33;2.50;;;;;24.90;100485.00;;;;2093459;28;20217;-55
2022/09/06 03:38:07;;;;;;;3.00;2.60;;;;;24.90;100491.00;;;;2095926;28;20345;-56
2022/09/06 03:39:08;;;;;;;2.87;2.60;;;;;24.90;100490.00;;;;2095367;28;20208;-55
2022/09/06 03:40:09;;;;;;;4.27;2.87;;;;;24.90;100497.00;;;;2088371;28;20701;-56
2022/09/06 03:41:09;;;;;;;3.17;2.87;;;;;24.90;100499.00;;;;2088480;28;20273;-56
2022/09/06 03:42:09;;;;;;;3.20;2.90;;;;;24.90;100502.00;;;;2088325;28;20537;-55
2022/09/06 03:43:10;;;;;;;3.00;2.63;;;;;24.90;100501.00;;;;2088473;28;20205;-56
2022/09/06 03:44:10;;;;;;;5.10;3.23;;;;;24.90;100499.00;;;;2090589;28;20229;-55
2022/09/06 03:45:11;;;;;;;4.53;3.00;;;;;24.90;100492.00;;;;2096589;28;20208;-55
2022/09/06 03:46:11;;;;;;;3.47;2.80;;;;;24.90;100490.00;;;;2095402;28;20618;-55
2022/09/06 03:47:12;;;;;;;3.00;2.80;;;;;24.90;100482.00;;;;2095976;28;20208;-55
2022/09/06 03:48:12;;;;;;;3.37;2.83;;;;;24.90;100477.00;;;;2095309;28;20259;-56
2022/09/06 03:49:12;;;;;;;3.20;2.90;;;;;24.90;100479.00;;;;2096536;28;20295;-55
2022/09/06 03:50:13;;;;;;;3.43;2.57;;;;;24.90;100470.00;;;;2096082;28;20580;-55
2022/09/06 03:51:14;;;;;;;3.37;2.83;;;;;24.90;100477.00;;;;2090651;28;20572;-55
2022/09/06 03:52:14;;;;;;;3.20;2.85;;;;;24.90;100475.00;;;;2087045;28;20209;-55
2022/09/06 03:53:15;;;;;;;3.20;2.90;;;;;24.90;100480.00;;;;2090616;28;20232;-56
2022/09/06 03:54:15;;;;;;;2.80;2.60;;;;;24.90;100481.00;;;;2096119;28;20707;-55
2022/09/06 03:55:16;;;;;;;4.70;3.03;;;;;24.90;100480.00;;;;2096717;28;20226;-55
2022/09/06 03:56:16;;;;;;;3.93;3.20;;;;;24.90;100482.00;;;;2096814;28;20204;-55
2022/09/06 03:57:16;;;;;;;2.97;2.77;;;;;24.90;100485.00;;;;2092935;28;20213;-55
2022/09/06 03:58:17;;;;;;;3.17;2.87;;;;;24.90;100482.00;;;;2087804;28;20207;-56
2022/09/06 03:59:18;;;;;;;3.30;3.00;;;;;24.90;100482.00;;;;2088450;28;20738;-55
2022/09/06 04:00:18;;;;;;;3.30;2.97;;;;;24.90;100481.00;;;;2088382;28;20205;-55
2022/09/06 04:01:18;;;;;;;3.87;3.00;;;;;24.90;100475.00;;;;2088399;28;20308;-56
2022/09/06 04:02:19;;;;;;;3.37;2.70;;;;;24.90;100478.00;;;;2092106;28;20219;-55
2022/09/06 04:03:19;;;;;;;3.20;2.80;;;;;25.00;100471.00;;;;2088084;28;20296;-55
2022/09/06 04:04:19;;;;;;;2.97;2.70;;;;;25.00;100464.00;;;;2088183;28;20220;-55
2022/09/06 04:05:20;;;;;;;3.10;2.87;;;;;25.00;100465.00;;;;2087546;28;20223;-55
2022/09/06 04:06:20;;;;;;;3.73;2.90;;;;;24.90;100466.00;;;;2090413;28;20212;-56
2022/09/06 04:07:21;;;;;;;3.70;3.03;;;;;24.90;100463.00;;;;2090938;28;20205;-55
2022/09/06 04:08:21;;;;;;;3.30;2.70;;;;;24.90;100460.00;;;;2086953;28;20610;-55
2022/09/06 04:09:22;;;;;;;3.10;2.80;;;;;24.90;100458.00;;;;2086756;28;20209;-55
2022/09/06 04:10:23;;;;;;;3.70;3.20;;;;;24.90;100463.00;;;;2087080;28;20220;-55
2022/09/06 04:11:23;;;;;;;3.00;2.70;;;;;24.90;100456.00;;;;2086921;28;20463;-55
2022/09/06 04:12:23;;;;;;;2.97;2.70;;;;;24.90;100460.00;;;;2087918;28;20223;-56
2022/09/06 04:13:24;;;;;;;3.53;3.00;;;;;24.90;100470.00;;;;2088074;28;20213;-56
2022/09/06 04:14:25;;;;;;;2.78;2.58;;;;;24.90;100461.00;;;;2088110;28;20562;-56
2022/09/06 04:15:25;;;;;;;2.97;2.77;;;;;25.00;100462.00;;;;2088158;28;20212;-55
2022/09/06 04:16:25;;;;;;;3.20;2.90;;;;;25.00;100452.00;;;;2096417;28;20200;-55
2022/09/06 04:17:26;;;;;;;2.73;2.50;;;;;25.00;100453.00;;;;2095471;28;20261;-56
2022/09/06 04:18:26;;;;;;;3.13;2.80;;;;;25.00;100460.00;;;;2096116;28;20208;-56
2022/09/06 04:19:27;;;;;;;4.40;2.43;;;;;25.00;100453.00;;;;2095681;28;20248;-56
2022/09/06 04:20:27;;;;;;;2.80;2.60;;;;;24.90;100444.00;;;;2095266;28;20238;-54
2022/09/06 04:21:27;;;;;;;3.67;2.90;;;;;24.90;100452.00;;;;2093843;28;20265;-56
2022/09/06 04:22:27;;;;;;;3.10;2.90;;;;;24.90;100456.00;;;;2095790;28;20254;-55
2022/09/06 04:23:28;;;;;;;3.03;2.40;;;;;24.90;100456.00;;;;2095659;28;20231;-56
2022/09/06 04:24:28;;;;;;;3.67;2.90;;;;;25.00;100463.00;;;;2095215;28;20220;-56
2022/09/06 04:25:28;;;;;;;3.33;3.03;;;;;24.90;100467.00;;;;2096148;28;20208;-54
2022/09/06 04:26:29;;;;;;;3.50;3.20;;;;;24.90;100321.00;;;;2095083;28;20305;-55
2022/09/06 04:27:29;;;;;;;4.10;2.97;;;;;24.90;100465.00;;;;2095346;28;20265;-54
2022/09/06 04:28:30;;;;;;;3.63;2.83;;;;;24.90;100470.00;;;;2095972;28;20231;-55
2022/09/06 04:29:30;;;;;;;3.43;3.13;;;;;24.90;100471.00;;;;2091427;28;20293;-56
2022/09/06 04:30:30;;;;;;;4.00;3.00;;;;;24.90;100469.00;;;;2087853;28;20554;-55
2022/09/06 04:31:31;;;;;;;3.07;2.37;;;;;24.90;100475.00;;;;2087972;28;20576;-56
2022/09/06 04:32:31;;;;;;;3.40;3.10;;;;;24.90;100467.00;;;;2088187;28;20213;-54
2022/09/06 04:33:32;;;;;;;3.67;3.37;;;;;24.90;100459.00;;;;2088060;28;20232;-55
2022/09/06 04:34:33;;;;;;;3.15;2.85;;;;;24.90;100414.00;;;;2078756;28;20271;-55
2022/09/06 04:35:33;;;;;;;3.57;2.90;;;;;24.90;100469.00;;;;2079006;28;20718;-55
2022/09/06 04:36:33;;;;;;;3.40;2.90;;;;;24.90;100476.00;;;;2088218;28;20239;-55
2022/09/06 04:37:34;;;;;;;2.77;2.50;;;;;24.90;100469.00;;;;2086982;28;20225;-56
2022/09/06 04:38:36;;;;;;;3.43;2.97;;;;;24.90;100479.00;;;;2087776;28;20221;-55
2022/09/06 04:39:36;;;;;;;3.40;3.10;;;;;24.90;100476.00;;;;2088057;28;20278;-55
2022/09/06 04:40:36;;;;;;;3.40;3.10;;;;;24.90;100475.00;;;;2087780;28;20669;-55
2022/09/06 04:41:37;;;;;;;4.00;3.27;;;;;24.90;100476.00;;;;2087903;28;20577;-55
2022/09/06 04:42:37;;;;;;;3.20;2.90;;;;;24.90;100511.00;;;;2087945;28;20696;-55
2022/09/06 04:43:37;;;;;;;3.07;2.87;;;;;24.90;100481.00;;;;2087625;28;20286;-55
2022/09/06 04:44:38;;;;;;;3.13;2.83;;;;;24.90;100484.00;;;;2087250;28;20300;-55
2022/09/06 04:45:38;;;;;;;4.37;3.30;;;;;24.90;100485.00;;;;2091690;28;20216;-55
2022/09/06 04:46:40;;;;;;;3.10;2.80;;;;;24.90;100488.00;;;;2089346;28;20224;-55
2022/09/06 04:47:40;;;;;;;4.35;3.42;;;;;24.90;100486.00;;;;2095167;28;20219;-55
2022/09/06 04:48:40;;;;;;;2.87;2.67;;;;;24.90;100484.00;;;;2095390;28;20216;-55
2022/09/06 04:49:41;;;;;;;2.73;2.50;;;;;24.90;100484.00;;;;2095485;28;20208;-55
2022/09/06 04:50:41;;;;;;;3.30;3.00;;;;;24.90;100494.00;;;;2096090;28;20224;-55
2022/09/06 04:51:41;;;;;;;3.00;2.80;;;;;24.90;100492.00;;;;2095964;28;20693;-55
2022/09/06 04:52:42;;;;;;;2.67;2.47;;;;;24.90;100495.00;;;;2095908;28;20953;-56
2022/09/06 04:53:42;;;;;;;4.33;2.70;;;;;24.90;100498.00;;;;2095800;28;20204;-55
2022/09/06 04:54:42;;;;;;;3.80;2.80;;;;;24.90;100501.00;;;;2087808;28;20220;-55
2022/09/06 04:55:43;;;;;;;2.90;2.70;;;;;24.90;100502.00;;;;2087967;28;20278;-55
2022/09/06 04:56:43;;;;;;;2.97;2.50;;;;;24.90;100498.00;;;;2087186;28;20699;-55
2022/09/06 04:57:43;;;;;;;3.50;2.60;;;;;24.90;100501.00;;;;2086214;28;20697;-55
2022/09/06 04:58:44;;;;;;;3.67;2.80;;;;;24.90;100501.00;;;;2092448;28;20678;-55
2022/09/06 04:59:45;;;;;;;2.80;2.60;;;;;24.90;100501.00;;;;2086669;28;20212;-55
2022/09/06 05:00:46;;;;;;;3.13;2.87;;;;;24.90;100502.00;;;;2087042;28;20997;-55
2022/09/06 05:01:46;;;;;;;3.30;2.90;;;;;24.90;100501.00;;;;2096129;28;20676;-55
2022/09/06 05:02:47;;;;;;;2.60;2.40;;;;;24.90;100499.00;;;;2095237;28;20213;-55
2022/09/06 05:03:47;;;;;;;3.40;3.07;;;;;24.90;100496.00;;;;2095506;28;20629;-55
2022/09/06 05:04:48;;;;;;;2.83;2.50;;;;;24.90;100500.00;;;;2095262;28;20282;-56
2022/09/06 05:05:48;;;;;;;3.60;3.07;;;;;24.90;100499.00;;;;2095936;28;20219;-55
2022/09/06 05:06:48;;;;;;;3.10;2.80;;;;;24.90;100498.00;;;;2096037;28;20231;-55
2022/09/06 05:07:55;;;;;;;3.60;2.90;;;;;24.90;100499.00;;;;2092652;28;20216;-56
2022/09/06 05:08:55;;;;;;;3.65;3.00;;;;;24.90;100503.00;;;;2095548;28;20208;-56
2022/09/06 05:09:55;;;;;;;3.00;2.70;;;;;24.90;100500.00;;;;2096065;28;20316;-56
2022/09/06 05:10:56;;;;;;;3.13;2.90;;;;;24.90;100487.00;;;;2096083;28;20208;-56
2022/09/06 05:11:56;;;;;;;3.70;2.53;;;;;24.90;100505.00;;;;2093968;28;20248;-56